Main page
METAR-TAF:

Airports :

Milan, Italy

Malpensa Airport

latitude: 45-37N, longitude: 008-44E, elevation: 234 m

Current weather observation

The report was made 43 minutes ago, at 16:20 UTC
Wind 2 kt from variable directions
Temperature 8°C
Humidity 61%
Pressure 995 hPa
Visibility 10 km or more
Broken clouds at a height of 3500 ft

METAR: LIMC 131620Z VRB02KT 9999 BKN035 08/01 Q0995 NOSIG

Time: 18:03 (17:03 UTC)

Forecast

The report was made 6 hours and 3 minutes ago, at 11:00 UTC
Forecast valid from 13 at 12 UTC to 14 at 18 UTC
Wind 6 kt from the North
Visibility: 5000 m
Scattered clouds at a height of 2500 ft
Broken clouds at a height of 7000 ft
mist
Temporary
from 13 at 21 UTC to 14 at 03 UTC
Visibility: 0800 m
patches of fog
Becoming
from 14 at 00 UTC to 14 at 02 UTC
Visibility: 2500 m
Broken clouds at a height of 1000 ft
Broken clouds at a height of 5000 ft
rain

TAF: LIMC 131100Z 1312/1418 35006KT 5000 BR SCT025 BKN070 TEMPO 1321/1403 0800 BCFG BECMG 1400/1402 2500 RA BKN010 BKN050

METAR-TAF

Weather observations and forecasts of more than 4000 airports (METAR and TAF reports).

The available stations are represented by yellow and red dots on the map.

Hover mouse over dot to see the name of the station.

Then click to see weather observations and forecasts.

To change the map : click on the green buttons with a black cross to zoom in, on the green button with a dash to zoom out, or on the green arrows for adjacent maps.


METAR-TAF: